createdAt,value
2019-02-28T00:00:41.412Z,1007.79
2019-02-28T00:01:43.248Z,1007.78
2019-02-28T00:02:42.120Z,1007.77
2019-02-28T00:03:41.110Z,1007.74
2019-02-28T00:04:41.075Z,1007.75
2019-02-28T00:05:41.057Z,1007.71
2019-02-28T00:06:43.981Z,1007.73
2019-02-28T00:07:41.038Z,1007.75
2019-02-28T00:08:41.062Z,1007.72
2019-02-28T00:09:40.998Z,1007.72
2019-02-28T00:10:40.994Z,1007.71
2019-02-28T00:11:41.002Z,1007.64
2019-02-28T00:12:40.982Z,1007.63
2019-02-28T00:13:40.982Z,1007.61
2019-02-28T00:14:40.967Z,1007.61
2019-02-28T00:15:40.929Z,1007.63
2019-02-28T00:16:40.938Z,1007.61
2019-02-28T00:17:43.498Z,1007.59
2019-02-28T00:18:40.984Z,1007.56
2019-02-28T00:19:40.897Z,1007.55
2019-02-28T00:20:40.882Z,1007.50
2019-02-28T00:21:41.321Z,1007.48
2019-02-28T00:22:40.851Z,1007.51
2019-02-28T00:23:40.857Z,1007.41
2019-02-28T00:24:40.866Z,1007.39
2019-02-28T00:25:40.819Z,1007.43
2019-02-28T00:26:46.276Z,1007.41
2019-02-28T00:27:41.792Z,1007.40
2019-02-28T00:28:40.802Z,1007.41
2019-02-28T00:29:40.778Z,1007.36
2019-02-28T00:30:41.547Z,1007.35
2019-02-28T00:31:40.756Z,1007.30
2019-02-28T00:32:40.741Z,1007.29
2019-02-28T00:33:40.744Z,1007.24
2019-02-28T00:34:40.725Z,1007.23
2019-02-28T00:35:40.711Z,1007.28
2019-02-28T00:36:40.698Z,1007.21
2019-02-28T00:37:40.679Z,1007.20
2019-02-28T00:38:40.699Z,1007.20
2019-02-28T00:39:40.665Z,1007.16
2019-02-28T00:40:40.647Z,1007.19
2019-02-28T00:41:44.451Z,1007.15
2019-02-28T00:42:40.624Z,1007.10
2019-02-28T00:43:40.631Z,1007.11
2019-02-28T00:44:40.605Z,1007.06
2019-02-28T00:45:40.639Z,1007.08
2019-02-28T00:46:43.859Z,1007.00
2019-02-28T00:47:40.573Z,1006.99
2019-02-28T00:48:40.575Z,1006.98
2019-02-28T00:49:40.572Z,1006.96
2019-02-28T00:50:40.531Z,1006.91
2019-02-28T00:51:40.518Z,1006.88
2019-02-28T00:52:40.518Z,1006.81
2019-02-28T00:53:40.525Z,1006.80
2019-02-28T00:54:44.303Z,1006.80
2019-02-28T00:55:40.540Z,1006.78
2019-02-28T00:56:40.478Z,1006.77
2019-02-28T00:57:40.447Z,1006.78
2019-02-28T00:58:40.435Z,1006.80
2019-02-28T00:59:40.453Z,1006.75
2019-02-28T01:00:40.415Z,1006.76
2019-02-28T01:01:43.095Z,1006.79
2019-02-28T01:02:41.388Z,1006.74
2019-02-28T01:03:40.383Z,1006.75
2019-02-28T01:04:40.393Z,1006.76
2019-02-28T01:05:40.369Z,1006.76
2019-02-28T01:06:41.773Z,1006.75
2019-02-28T01:07:40.351Z,1006.69
2019-02-28T01:08:40.321Z,1006.78
2019-02-28T01:09:40.333Z,1006.68
2019-02-28T01:10:40.297Z,1006.68
2019-02-28T01:11:40.296Z,1006.68
2019-02-28T01:12:40.286Z,1006.68
2019-02-28T01:13:40.272Z,1006.58
2019-02-28T01:14:40.272Z,1006.59
2019-02-28T01:15:44.502Z,1006.60
2019-02-28T01:16:41.414Z,1006.59
2019-02-28T01:17:40.233Z,1006.55
2019-02-28T01:18:40.209Z,1006.56
2019-02-28T01:19:41.286Z,1006.54
2019-02-28T01:20:40.189Z,1006.51
2019-02-28T01:21:40.180Z,1006.44
2019-02-28T01:22:40.176Z,1006.41
2019-02-28T01:23:40.159Z,1006.38
2019-02-28T01:24:40.161Z,1006.41
2019-02-28T01:25:40.878Z,1006.43
2019-02-28T01:26:40.134Z,1006.41
2019-02-28T01:27:40.106Z,1006.36
2019-02-28T01:28:40.098Z,1006.38
2019-02-28T01:29:40.106Z,1006.34
2019-02-28T01:30:40.564Z,1006.32
2019-02-28T01:31:42.535Z,1006.28
2019-02-28T01:32:40.056Z,1006.25
2019-02-28T01:33:40.038Z,1006.28
2019-02-28T01:34:40.046Z,1006.27
2019-02-28T01:35:40.801Z,1006.21
2019-02-28T01:36:40.002Z,1006.16
2019-02-28T01:37:39.989Z,1006.22
2019-02-28T01:38:40.003Z,1006.23
2019-02-28T01:39:39.975Z,1006.11
2019-02-28T01:40:39.978Z,1006.18
2019-02-28T01:41:42.262Z,1006.14
2019-02-28T01:42:40.942Z,1006.14
2019-02-28T01:43:39.930Z,1006.07
2019-02-28T01:44:39.915Z,1006.08
2019-02-28T01:45:43.443Z,1006.04
2019-02-28T01:46:39.897Z,1006.02
2019-02-28T01:47:39.877Z,1006.08
2019-02-28T01:48:39.865Z,1006.01
2019-02-28T01:49:39.885Z,1006.00
2019-02-28T01:50:39.890Z,1006.12
2019-02-28T01:51:39.832Z,1006.15
2019-02-28T01:52:44.401Z,1006.13
2019-02-28T01:53:40.809Z,1006.12
2019-02-28T01:54:39.799Z,1006.15
2019-02-28T01:55:39.801Z,1006.04
2019-02-28T01:56:39.786Z,1006.08
2019-02-28T01:57:43.740Z,1006.09
2019-02-28T01:58:39.752Z,1005.95
2019-02-28T01:59:39.736Z,1005.96
2019-02-28T02:00:39.756Z,1005.90
2019-02-28T02:01:39.717Z,1005.92
2019-02-28T02:02:39.730Z,1005.95
2019-02-28T02:03:40.706Z,1005.83
2019-02-28T02:04:39.680Z,1005.88
2019-02-28T02:05:39.696Z,1005.74
2019-02-28T02:06:39.659Z,1005.82
2019-02-28T02:07:39.653Z,1005.81
2019-02-28T02:08:39.639Z,1005.71
2019-02-28T02:09:42.694Z,1005.77
2019-02-28T02:10:40.644Z,1005.79
2019-02-28T02:11:39.655Z,1005.73
2019-02-28T02:12:39.592Z,1005.72
2019-02-28T02:13:39.580Z,1005.72
2019-02-28T02:14:39.588Z,1005.67
2019-02-28T02:15:39.569Z,1005.69
2019-02-28T02:16:39.573Z,1005.69
2019-02-28T02:17:39.532Z,1005.71
2019-02-28T02:18:40.262Z,1005.80
2019-02-28T02:19:39.510Z,1005.79
2019-02-28T02:20:39.499Z,1005.77
2019-02-28T02:21:39.499Z,1005.81
2019-02-28T02:22:40.636Z,1005.77
2019-02-28T02:23:39.477Z,1005.82
2019-02-28T02:24:39.483Z,1005.78
2019-02-28T02:25:39.438Z,1005.76
2019-02-28T02:26:42.302Z,1005.79
2019-02-28T02:27:40.421Z,1005.69
2019-02-28T02:28:39.422Z,1005.70
2019-02-28T02:29:39.392Z,1005.72
2019-02-28T02:30:39.385Z,1005.75
2019-02-28T02:31:39.412Z,1005.72
2019-02-28T02:32:39.357Z,1005.73
2019-02-28T02:33:39.364Z,1005.77
2019-02-28T02:34:39.336Z,1005.71
2019-02-28T02:35:42.576Z,1005.70
2019-02-28T02:36:39.334Z,1005.71
2019-02-28T02:37:39.297Z,1005.63
2019-02-28T02:38:41.435Z,1005.67
2019-02-28T02:39:39.285Z,1005.62
2019-02-28T02:40:39.266Z,1005.63
2019-02-28T02:41:39.281Z,1005.62
2019-02-28T02:42:39.250Z,1005.58
2019-02-28T02:43:39.231Z,1005.55
2019-02-28T02:44:39.222Z,1005.51
2019-02-28T02:45:43.415Z,1005.52
2019-02-28T02:46:39.229Z,1005.44
2019-02-28T02:47:39.189Z,1005.37
2019-02-28T02:48:42.295Z,1005.39
2019-02-28T02:49:39.165Z,1005.38
2019-02-28T02:50:39.172Z,1005.37
2019-02-28T02:51:39.224Z,1005.31
2019-02-28T02:52:39.138Z,1005.32
2019-02-28T02:53:42.097Z,1005.27
2019-02-28T02:54:39.106Z,1005.23
2019-02-28T02:55:39.093Z,1005.21
2019-02-28T02:56:41.967Z,1005.22
2019-02-28T02:57:39.123Z,1005.17
2019-02-28T02:58:39.070Z,1005.15
2019-02-28T02:59:39.490Z,1005.15
2019-02-28T03:00:39.059Z,1005.18
2019-02-28T03:01:39.029Z,1005.15
2019-02-28T03:02:39.035Z,1005.17
2019-02-28T03:03:42.678Z,1005.16
2019-02-28T03:04:40.000Z,1005.17
2019-02-28T03:05:38.995Z,1005.11
2019-02-28T03:06:38.969Z,1005.12
2019-02-28T03:07:38.979Z,1005.13
2019-02-28T03:08:38.970Z,1005.12
2019-02-28T03:09:43.290Z,1005.15
2019-02-28T03:10:39.925Z,1005.15
2019-02-28T03:11:38.915Z,1005.17
2019-02-28T03:12:38.916Z,1005.14
2019-02-28T03:13:43.580Z,1005.13
2019-02-28T03:14:39.887Z,1005.15
2019-02-28T03:15:38.868Z,1005.08
2019-02-28T03:16:38.866Z,1005.04
2019-02-28T03:17:38.874Z,1005.00
2019-02-28T03:18:38.834Z,1005.11
2019-02-28T03:19:38.826Z,1005.14
2019-02-28T03:20:41.278Z,1005.04
2019-02-28T03:21:38.815Z,1005.08
2019-02-28T03:22:38.806Z,1005.01
2019-02-28T03:23:40.527Z,1005.19
2019-02-28T03:24:38.766Z,1005.14
2019-02-28T03:25:38.748Z,1005.10
2019-02-28T03:26:41.930Z,1005.12
2019-02-28T03:27:38.780Z,1005.08
2019-02-28T03:28:38.715Z,1005.11
2019-02-28T03:29:43.519Z,1005.10
2019-02-28T03:30:39.716Z,1005.14
2019-02-28T03:31:38.683Z,1005.09
2019-02-28T03:32:42.011Z,1005.19
2019-02-28T03:33:38.693Z,1005.16
2019-02-28T03:34:38.672Z,1005.14
2019-02-28T03:35:43.285Z,1005.04
2019-02-28T03:36:39.649Z,1005.08
2019-02-28T03:37:38.630Z,1005.05
2019-02-28T03:38:38.611Z,1005.00
2019-02-28T03:39:38.601Z,1005.07
2019-02-28T03:40:40.432Z,1005.06
2019-02-28T03:41:38.566Z,1005.05
2019-02-28T03:42:38.592Z,1005.08
2019-02-28T03:43:43.940Z,1005.03
2019-02-28T03:44:39.529Z,1005.05
2019-02-28T03:45:38.527Z,1005.02
2019-02-28T03:46:38.535Z,1005.04
2019-02-28T03:47:38.534Z,1004.93
2019-02-28T03:48:38.508Z,1004.86
2019-02-28T03:49:38.476Z,1004.87
2019-02-28T03:50:38.494Z,1004.81
2019-02-28T03:51:38.469Z,1004.84
2019-02-28T03:52:44.057Z,1004.87
2019-02-28T03:53:39.461Z,1004.83
2019-02-28T03:54:38.422Z,1004.82
2019-02-28T03:55:40.880Z,1004.82
2019-02-28T03:56:38.401Z,1004.84
2019-02-28T03:57:38.388Z,1004.76
2019-02-28T03:58:42.782Z,1004.80
2019-02-28T03:59:38.375Z,1004.81
2019-02-28T04:00:38.371Z,1004.81
2019-02-28T04:01:45.041Z,1004.72
2019-02-28T04:02:39.335Z,1004.71
2019-02-28T04:03:38.335Z,1004.72
2019-02-28T04:04:38.383Z,1004.81
2019-02-28T04:05:38.304Z,1004.75
2019-02-28T04:06:40.815Z,1004.73
2019-02-28T04:07:38.290Z,1004.77
2019-02-28T04:08:38.293Z,1004.77
2019-02-28T04:09:43.743Z,1004.75
2019-02-28T04:10:39.241Z,1004.80
2019-02-28T04:11:38.233Z,1004.78
2019-02-28T04:12:45.103Z,1004.71
2019-02-28T04:13:39.226Z,1004.71
2019-02-28T04:14:38.213Z,1004.69
2019-02-28T04:15:38.193Z,1004.64
2019-02-28T04:16:38.177Z,1004.51
2019-02-28T04:17:38.164Z,1004.57
2019-02-28T04:18:44.358Z,1004.56
2019-02-28T04:19:39.138Z,1004.54
2019-02-28T04:20:38.157Z,1004.56
2019-02-28T04:21:38.134Z,1004.50
2019-02-28T04:22:38.105Z,1004.45
2019-02-28T04:23:38.113Z,1004.46
2019-02-28T04:24:38.090Z,1004.49
2019-02-28T04:25:38.079Z,1004.52
2019-02-28T04:26:38.070Z,1004.49
2019-02-28T04:27:40.240Z,1004.48
2019-02-28T04:28:38.061Z,1004.48
2019-02-28T04:29:38.034Z,1004.43
2019-02-28T04:30:42.190Z,1004.48
2019-02-28T04:31:39.014Z,1004.43
2019-02-28T04:32:37.997Z,1004.44
2019-02-28T04:33:39.325Z,1004.47
2019-02-28T04:34:38.012Z,1004.45
2019-02-28T04:35:37.968Z,1004.40
2019-02-28T04:36:37.943Z,1004.40
2019-02-28T04:37:44.984Z,1004.34
2019-02-28T04:38:38.925Z,1004.33
2019-02-28T04:39:37.931Z,1004.33
2019-02-28T04:40:37.926Z,1004.28
2019-02-28T04:41:37.912Z,1004.33
2019-02-28T04:42:37.878Z,1004.27
2019-02-28T04:43:37.873Z,1004.25
2019-02-28T04:44:37.888Z,1004.17
2019-02-28T04:45:37.846Z,1004.23
2019-02-28T04:46:37.838Z,1004.18
2019-02-28T04:47:40.553Z,1004.17
2019-02-28T04:48:37.808Z,1004.28
2019-02-28T04:49:37.823Z,1004.29
2019-02-28T04:50:37.805Z,1004.24
2019-02-28T04:51:40.204Z,1004.17
2019-02-28T04:52:37.763Z,1004.17
2019-02-28T04:53:37.769Z,1004.18
2019-02-28T04:54:37.762Z,1004.14
2019-02-28T04:55:37.990Z,1004.13
2019-02-28T04:56:37.737Z,1004.21
2019-02-28T04:57:37.709Z,1004.15
2019-02-28T04:58:37.694Z,1004.15
2019-02-28T04:59:37.721Z,1004.11
2019-02-28T05:00:38.066Z,1004.16
2019-02-28T05:01:37.670Z,1004.08
2019-02-28T05:02:37.666Z,1004.03
2019-02-28T05:03:37.642Z,1004.02
2019-02-28T05:04:37.659Z,1003.92
2019-02-28T05:05:37.619Z,1003.98
2019-02-28T05:06:37.602Z,1003.98
2019-02-28T05:07:37.600Z,1003.99
2019-02-28T05:08:38.943Z,1004.02
2019-02-28T05:09:37.590Z,1003.97
2019-02-28T05:10:37.557Z,1004.01
2019-02-28T05:11:37.548Z,1003.94
2019-02-28T05:12:39.836Z,1003.97
2019-02-28T05:13:37.531Z,1003.99
2019-02-28T05:14:37.536Z,1004.00
2019-02-28T05:15:39.438Z,1004.03
2019-02-28T05:16:37.492Z,1004.04
2019-02-28T05:17:37.477Z,1003.97
2019-02-28T05:18:37.479Z,1004.03
2019-02-28T05:19:37.497Z,1003.99
2019-02-28T05:20:37.452Z,1003.98
2019-02-28T05:21:37.432Z,1004.02
2019-02-28T05:22:37.423Z,1003.95
2019-02-28T05:23:37.412Z,1003.93
2019-02-28T05:24:39.506Z,1003.95
2019-02-28T05:25:38.388Z,1003.91
2019-02-28T05:26:37.376Z,1003.92
2019-02-28T05:27:37.366Z,1003.97
2019-02-28T05:28:40.538Z,1003.96
2019-02-28T05:29:37.374Z,1003.96
2019-02-28T05:30:37.333Z,1004.00
2019-02-28T05:31:37.328Z,1003.96
2019-02-28T05:32:37.319Z,1003.97
2019-02-28T05:33:38.319Z,1003.89
2019-02-28T05:34:37.312Z,1003.85
2019-02-28T05:35:37.275Z,1003.83
2019-02-28T05:36:38.041Z,1003.84
2019-02-28T05:37:37.260Z,1003.79
2019-02-28T05:38:37.243Z,1003.77
2019-02-28T05:39:37.248Z,1003.80
2019-02-28T05:40:40.605Z,1003.79
2019-02-28T05:41:37.234Z,1003.76
2019-02-28T05:42:37.199Z,1003.78
2019-02-28T05:43:37.195Z,1003.74
2019-02-28T05:44:37.457Z,1003.71
2019-02-28T05:45:37.164Z,1003.73
2019-02-28T05:46:37.153Z,1003.71
2019-02-28T05:47:45.733Z,1003.70
2019-02-28T05:48:38.688Z,1003.77
2019-02-28T05:49:37.134Z,1003.77
2019-02-28T05:50:37.253Z,1003.75
2019-02-28T05:51:37.101Z,1003.71
2019-02-28T05:52:37.092Z,1003.74
2019-02-28T05:53:37.079Z,1003.76
2019-02-28T05:54:37.097Z,1003.75
2019-02-28T05:55:37.060Z,1003.74
2019-02-28T05:56:37.065Z,1003.77
2019-02-28T05:57:39.402Z,1003.71
2019-02-28T05:58:38.041Z,1003.70
2019-02-28T05:59:37.017Z,1003.68
2019-02-28T06:00:37.768Z,1003.73
2019-02-28T06:01:36.983Z,1003.73
2019-02-28T06:02:36.974Z,1003.82
2019-02-28T06:03:36.970Z,1003.77
2019-02-28T06:04:37.783Z,1003.87
2019-02-28T06:05:38.849Z,1003.86
2019-02-28T06:06:36.942Z,1003.88
2019-02-28T06:07:36.916Z,1003.87
2019-02-28T06:08:39.165Z,1003.88
2019-02-28T06:09:36.910Z,1003.90
2019-02-28T06:10:36.910Z,1003.91
2019-02-28T06:11:36.871Z,1003.89
2019-02-28T06:12:36.929Z,1003.87
2019-02-28T06:13:37.144Z,1003.88
2019-02-28T06:14:36.839Z,1003.88
2019-02-28T06:15:37.148Z,1003.87
2019-02-28T06:16:36.822Z,1004.00
2019-02-28T06:17:36.816Z,1004.04
2019-02-28T06:18:36.791Z,1004.06
2019-02-28T06:19:36.813Z,1003.99
2019-02-28T06:20:36.817Z,1004.05
2019-02-28T06:21:36.768Z,1003.99
2019-02-28T06:22:36.748Z,1004.06
2019-02-28T06:23:36.745Z,1004.08
2019-02-28T06:24:36.751Z,1004.19
2019-02-28T06:25:36.711Z,1004.14
2019-02-28T06:26:36.722Z,1004.12
2019-02-28T06:27:41.531Z,1004.12
2019-02-28T06:28:37.689Z,1004.11
2019-02-28T06:29:37.520Z,1004.08
2019-02-28T06:30:36.668Z,1004.11
2019-02-28T06:31:36.689Z,1004.02
2019-02-28T06:32:36.638Z,1004.05
2019-02-28T06:33:36.621Z,1004.04
2019-02-28T06:34:39.419Z,1004.01
2019-02-28T06:35:37.603Z,1004.03
2019-02-28T06:36:36.666Z,1004.01
2019-02-28T06:37:38.374Z,1003.99
2019-02-28T06:38:36.575Z,1004.01
2019-02-28T06:39:37.559Z,1004.07
2019-02-28T06:40:36.573Z,1004.07
2019-02-28T06:41:39.901Z,1004.02
2019-02-28T06:42:36.525Z,1004.06
2019-02-28T06:43:36.519Z,1004.02
2019-02-28T06:44:36.526Z,1004.08
2019-02-28T06:45:37.728Z,1004.03
2019-02-28T06:46:39.845Z,1004.10
2019-02-28T06:47:36.504Z,1004.07
2019-02-28T06:48:36.472Z,1004.06
2019-02-28T06:49:40.980Z,1004.03
2019-02-28T06:50:37.463Z,1004.05
2019-02-28T06:51:37.906Z,1004.05
2019-02-28T06:52:36.419Z,1004.06
2019-02-28T06:53:36.431Z,1004.13
2019-02-28T06:54:39.254Z,1004.08
2019-02-28T06:55:36.380Z,1004.10
2019-02-28T06:56:36.389Z,1004.09
2019-02-28T06:57:36.372Z,1004.06
2019-02-28T06:58:36.353Z,1004.00
2019-02-28T06:59:39.164Z,1003.97
2019-02-28T07:00:36.351Z,1003.95
2019-02-28T07:01:36.334Z,1003.94
2019-02-28T07:02:36.300Z,1003.94
2019-02-28T07:03:38.758Z,1003.92
2019-02-28T07:04:36.290Z,1003.89
2019-02-28T07:05:36.404Z,1003.93
2019-02-28T07:06:36.639Z,1003.91
2019-02-28T07:07:36.253Z,1003.81
2019-02-28T07:08:36.230Z,1003.77
2019-02-28T07:09:36.440Z,1003.80
2019-02-28T07:10:36.224Z,1003.77
2019-02-28T07:11:36.264Z,1003.73
2019-02-28T07:12:36.192Z,1003.70
2019-02-28T07:13:39.285Z,1003.63
2019-02-28T07:14:37.634Z,1003.56
2019-02-28T07:15:36.464Z,1003.54
2019-02-28T07:16:37.865Z,1003.63
2019-02-28T07:17:36.175Z,1003.57
2019-02-28T07:18:36.128Z,1003.63
2019-02-28T07:19:36.110Z,1003.70
2019-02-28T07:20:36.199Z,1003.74
2019-02-28T07:21:36.113Z,1003.66
2019-02-28T07:22:36.121Z,1003.72
2019-02-28T07:23:36.070Z,1003.72
2019-02-28T07:24:37.582Z,1003.83
2019-02-28T07:25:36.065Z,1003.77
2019-02-28T07:26:36.045Z,1003.77
2019-02-28T07:27:36.083Z,1003.82
2019-02-28T07:28:37.259Z,1003.81
2019-02-28T07:29:35.999Z,1003.83
2019-02-28T07:30:35.997Z,1003.89
2019-02-28T07:31:35.994Z,1003.84
2019-02-28T07:32:36.018Z,1003.84
2019-02-28T07:33:35.953Z,1003.83
2019-02-28T07:34:35.955Z,1003.82
2019-02-28T07:35:36.894Z,1003.84
2019-02-28T07:36:35.936Z,1003.88
2019-02-28T07:37:35.927Z,1003.79
2019-02-28T07:38:35.905Z,1003.79
2019-02-28T07:39:36.528Z,1003.83
2019-02-28T07:40:35.922Z,1003.90
2019-02-28T07:41:35.883Z,1003.90
2019-02-28T07:42:37.622Z,1003.93
2019-02-28T07:43:35.838Z,1003.91
2019-02-28T07:44:37.988Z,1003.86
2019-02-28T07:45:35.856Z,1003.99
2019-02-28T07:46:38.689Z,1003.96
2019-02-28T07:47:36.817Z,1003.94
2019-02-28T07:48:35.782Z,1003.93
2019-02-28T07:49:36.939Z,1003.94
2019-02-28T07:50:35.912Z,1003.96
2019-02-28T07:51:35.763Z,1003.94
2019-02-28T07:52:35.753Z,1003.96
2019-02-28T07:53:35.730Z,1003.96
2019-02-28T07:54:35.733Z,1003.92
2019-02-28T07:55:35.745Z,1004.00
2019-02-28T07:56:42.474Z,1004.05
2019-02-28T07:57:36.711Z,1004.02
2019-02-28T07:58:35.679Z,1004.07
2019-02-28T07:59:40.873Z,1004.11
2019-02-28T08:00:36.675Z,1004.09
2019-02-28T08:01:35.650Z,1004.15
2019-02-28T08:02:39.098Z,1004.14
2019-02-28T08:03:35.689Z,1004.12
2019-02-28T08:04:35.617Z,1004.14
2019-02-28T08:05:35.595Z,1004.12
2019-02-28T08:06:36.305Z,1004.06
2019-02-28T08:07:35.583Z,1004.07
2019-02-28T08:08:35.572Z,1004.06
2019-02-28T08:09:36.878Z,1004.08
2019-02-28T08:10:36.532Z,1004.12
2019-02-28T08:11:35.536Z,1004.16
2019-02-28T08:12:35.525Z,1004.06
2019-02-28T08:13:37.736Z,1004.14
2019-02-28T08:14:35.496Z,1004.13
2019-02-28T08:15:35.477Z,1004.12
2019-02-28T08:16:35.463Z,1004.14
2019-02-28T08:17:35.477Z,1004.10
2019-02-28T08:18:35.469Z,1004.05
2019-02-28T08:19:35.439Z,1004.08
2019-02-28T08:20:35.417Z,1004.08
2019-02-28T08:21:35.426Z,1004.06
2019-02-28T08:22:35.420Z,1004.09
2019-02-28T08:23:37.398Z,1004.14
2019-02-28T08:24:36.083Z,1004.19
2019-02-28T08:25:35.383Z,1004.19
2019-02-28T08:26:35.354Z,1004.19
2019-02-28T08:27:35.346Z,1004.16
2019-02-28T08:28:36.792Z,1004.12
2019-02-28T08:29:35.343Z,1004.10
2019-02-28T08:30:35.309Z,1004.08
2019-02-28T08:31:35.309Z,1004.08
2019-02-28T08:32:35.302Z,1004.07
2019-02-28T08:33:35.294Z,1004.13
2019-02-28T08:34:35.270Z,1004.11
2019-02-28T08:35:36.007Z,1004.20
2019-02-28T08:36:35.245Z,1004.22
2019-02-28T08:37:35.234Z,1004.20
2019-02-28T08:38:35.239Z,1004.19
2019-02-28T08:39:35.228Z,1004.22
2019-02-28T08:40:35.198Z,1004.21
2019-02-28T08:41:35.207Z,1004.24
2019-02-28T08:42:38.705Z,1004.19
2019-02-28T08:43:35.222Z,1004.21
2019-02-28T08:44:35.164Z,1004.14
2019-02-28T08:45:35.143Z,1004.13
2019-02-28T08:46:35.136Z,1004.11
2019-02-28T08:47:35.159Z,1004.09
2019-02-28T08:48:35.104Z,1004.02
2019-02-28T08:49:35.107Z,1004.01
2019-02-28T08:50:35.090Z,1003.92
2019-02-28T08:51:35.075Z,1003.95
2019-02-28T08:52:37.700Z,1003.96
2019-02-28T08:53:36.057Z,1003.93
2019-02-28T08:54:35.065Z,1003.85
2019-02-28T08:55:38.494Z,1003.79
2019-02-28T08:56:35.035Z,1003.89
2019-02-28T08:57:35.025Z,1003.77
2019-02-28T08:58:37.615Z,1003.85
2019-02-28T08:59:35.017Z,1003.78
2019-02-28T09:00:34.987Z,1003.77
2019-02-28T09:01:40.077Z,1003.81
2019-02-28T09:02:35.950Z,1003.86
2019-02-28T09:03:34.951Z,1003.87
2019-02-28T09:04:41.181Z,1003.93
2019-02-28T09:05:35.915Z,1003.94
2019-02-28T09:06:37.821Z,1003.95
2019-02-28T09:07:35.887Z,1003.86
2019-02-28T09:08:34.884Z,1003.76
2019-02-28T09:09:35.315Z,1003.88
2019-02-28T09:10:34.855Z,1003.89
2019-02-28T09:11:34.859Z,1003.78
2019-02-28T09:12:34.840Z,1003.83
2019-02-28T09:13:34.825Z,1003.89
2019-02-28T09:14:34.836Z,1003.85
2019-02-28T09:15:34.806Z,1003.90
2019-02-28T09:16:36.719Z,1003.99
2019-02-28T09:17:34.775Z,1004.01
2019-02-28T09:18:34.785Z,1004.02
2019-02-28T09:19:36.029Z,1004.00
2019-02-28T09:20:34.738Z,1003.95
2019-02-28T09:21:34.729Z,1003.94
2019-02-28T09:22:34.722Z,1003.87
2019-02-28T09:23:37.681Z,1003.94
2019-02-28T09:24:34.715Z,1003.97
2019-02-28T09:25:34.693Z,1003.97
2019-02-28T09:26:34.671Z,1003.96
2019-02-28T09:27:35.288Z,1004.02
2019-02-28T09:28:34.659Z,1003.99
2019-02-28T09:29:34.674Z,1004.00
2019-02-28T09:30:34.666Z,1003.92
2019-02-28T09:31:38.722Z,1003.92
2019-02-28T09:32:34.604Z,1003.94
2019-02-28T09:33:34.602Z,1003.99
2019-02-28T09:34:34.614Z,1003.94
2019-02-28T09:35:34.581Z,1003.92
2019-02-28T09:36:34.574Z,1003.93
2019-02-28T09:37:34.550Z,1003.89
2019-02-28T09:38:34.544Z,1003.89
2019-02-28T09:39:35.792Z,1003.90
2019-02-28T09:40:34.509Z,1003.92
2019-02-28T09:41:36.502Z,1003.92
2019-02-28T09:42:35.492Z,1003.91
2019-02-28T09:43:34.518Z,1003.93
2019-02-28T09:44:34.514Z,1003.93
2019-02-28T09:45:34.454Z,1003.92
2019-02-28T09:46:34.465Z,1003.98
2019-02-28T09:47:34.451Z,1004.07
2019-02-28T09:48:37.230Z,1004.17
2019-02-28T09:49:34.472Z,1004.13
2019-02-28T09:50:34.412Z,1004.16
2019-02-28T09:51:34.388Z,1004.15
2019-02-28T09:52:34.400Z,1004.11
2019-02-28T09:53:34.365Z,1004.12
2019-02-28T09:54:34.369Z,1004.14
2019-02-28T09:55:35.399Z,1004.12
2019-02-28T09:56:34.370Z,1004.07
2019-02-28T09:57:34.319Z,1004.13
2019-02-28T09:58:34.379Z,1004.05
2019-02-28T09:59:37.803Z,1004.08
2019-02-28T10:00:34.309Z,1004.05
2019-02-28T10:01:34.270Z,1004.13
2019-02-28T10:02:34.258Z,1004.13
2019-02-28T10:03:34.718Z,1004.15
2019-02-28T10:04:34.249Z,1004.15
2019-02-28T10:05:34.259Z,1004.17
2019-02-28T10:06:34.225Z,1004.19
2019-02-28T10:07:34.203Z,1004.17
2019-02-28T10:08:36.813Z,1004.22
2019-02-28T10:09:34.203Z,1004.23
2019-02-28T10:10:34.199Z,1004.24
2019-02-28T10:11:34.157Z,1004.29
2019-02-28T10:12:34.157Z,1004.25
2019-02-28T10:13:34.135Z,1004.32
2019-02-28T10:14:34.677Z,1004.32
2019-02-28T10:15:34.131Z,1004.32
2019-02-28T10:16:34.107Z,1004.34
2019-02-28T10:17:34.098Z,1004.29
2019-02-28T10:18:35.488Z,1004.34
2019-02-28T10:19:43.052Z,1004.34
2019-02-28T10:20:35.096Z,1004.32
2019-02-28T10:21:36.468Z,1004.32
2019-02-28T10:22:34.053Z,1004.27
2019-02-28T10:23:34.022Z,1004.27
2019-02-28T10:24:34.011Z,1004.22
2019-02-28T10:25:34.019Z,1004.26
2019-02-28T10:26:33.991Z,1004.24
2019-02-28T10:27:34.006Z,1004.29
2019-02-28T10:28:33.983Z,1004.35
2019-02-28T10:29:33.955Z,1004.31
2019-02-28T10:30:33.984Z,1004.30
2019-02-28T10:31:38.026Z,1004.24
2019-02-28T10:32:33.937Z,1004.19
2019-02-28T10:33:33.930Z,1004.21
2019-02-28T10:34:35.369Z,1004.19
2019-02-28T10:35:36.649Z,1004.15
2019-02-28T10:36:33.879Z,1004.09
2019-02-28T10:37:35.597Z,1004.11
2019-02-28T10:38:33.984Z,1004.03
2019-02-28T10:39:33.845Z,1004.09
2019-02-28T10:40:33.862Z,1004.09
2019-02-28T10:41:33.837Z,1004.06
2019-02-28T10:42:33.817Z,1004.12
2019-02-28T10:43:33.809Z,1004.09
2019-02-28T10:44:33.809Z,1004.09
2019-02-28T10:45:33.795Z,1004.11
2019-02-28T10:46:33.802Z,1004.07
2019-02-28T10:47:33.757Z,1004.14
2019-02-28T10:48:35.300Z,1004.06
2019-02-28T10:49:33.733Z,1004.07
2019-02-28T10:50:33.767Z,1004.09
2019-02-28T10:51:33.713Z,1004.07
2019-02-28T10:52:33.713Z,1004.09
2019-02-28T10:53:36.296Z,1004.07
2019-02-28T10:54:34.686Z,1004.09
2019-02-28T10:55:33.691Z,1004.23
2019-02-28T10:56:33.655Z,1004.17
2019-02-28T10:57:33.647Z,1004.16
2019-02-28T10:58:33.635Z,1004.15
2019-02-28T10:59:33.624Z,1004.11
2019-02-28T11:00:33.768Z,1004.17
2019-02-28T11:01:33.607Z,1004.09
2019-02-28T11:02:33.606Z,1004.02
2019-02-28T11:03:33.574Z,1003.99
2019-02-28T11:04:33.564Z,1003.87
2019-02-28T11:05:33.575Z,1003.94
2019-02-28T11:06:33.553Z,1004.04
2019-02-28T11:07:34.237Z,1004.02
2019-02-28T11:08:33.540Z,1004.05
2019-02-28T11:09:33.606Z,1003.99
2019-02-28T11:10:35.484Z,1004.04
2019-02-28T11:11:33.485Z,1004.03
2019-02-28T11:12:33.480Z,1004.06
2019-02-28T11:13:33.464Z,1004.00
2019-02-28T11:14:35.556Z,1004.02
2019-02-28T11:15:34.468Z,1004.10
2019-02-28T11:16:33.448Z,1004.14
2019-02-28T11:17:34.207Z,1004.11
2019-02-28T11:18:33.404Z,1004.14
2019-02-28T11:19:33.394Z,1004.23
2019-02-28T11:20:33.410Z,1004.27
2019-02-28T11:21:33.376Z,1004.28
2019-02-28T11:22:33.354Z,1004.20
2019-02-28T11:23:33.363Z,1004.24
2019-02-28T11:24:33.354Z,1004.26
2019-02-28T11:25:35.569Z,1004.29
2019-02-28T11:26:33.314Z,1004.24
2019-02-28T11:27:33.321Z,1004.28
2019-02-28T11:28:33.322Z,1004.24
2019-02-28T11:29:35.081Z,1004.30
2019-02-28T11:30:33.289Z,1004.19
2019-02-28T11:31:33.288Z,1004.28
2019-02-28T11:32:33.262Z,1004.27
2019-02-28T11:33:33.241Z,1004.22
2019-02-28T11:34:33.231Z,1004.27
2019-02-28T11:35:33.273Z,1004.25
2019-02-28T11:36:34.082Z,1004.20
2019-02-28T11:37:33.192Z,1004.21
2019-02-28T11:38:33.192Z,1004.23
2019-02-28T11:39:33.789Z,1004.21
2019-02-28T11:40:33.182Z,1004.19
2019-02-28T11:41:33.149Z,1004.21
2019-02-28T11:42:33.158Z,1004.21
2019-02-28T11:43:37.221Z,1004.16
2019-02-28T11:44:34.119Z,1004.19
2019-02-28T11:45:33.107Z,1004.24
2019-02-28T11:46:35.608Z,1004.22
2019-02-28T11:47:33.087Z,1004.22
2019-02-28T11:48:33.073Z,1004.22
2019-02-28T11:49:33.107Z,1004.22
2019-02-28T11:50:33.046Z,1004.20
2019-02-28T11:51:33.051Z,1004.26
2019-02-28T11:52:33.028Z,1004.27
2019-02-28T11:53:33.008Z,1004.22
2019-02-28T11:54:33.000Z,1004.25
2019-02-28T11:55:32.993Z,1004.25
2019-02-28T11:56:33.005Z,1004.23
2019-02-28T11:57:32.987Z,1004.24
2019-02-28T11:58:32.956Z,1004.22
2019-02-28T11:59:32.951Z,1004.14
2019-02-28T12:00:35.635Z,1004.11
2019-02-28T12:01:32.941Z,1004.11
2019-02-28T12:02:32.935Z,1004.07
2019-02-28T12:03:35.483Z,1004.05
2019-02-28T12:04:32.889Z,1004.02
2019-02-28T12:05:32.877Z,1004.04